M/V Nikos N — V7AR5 — position and weather

sailwx.info

Track history (hours):
 
Tides and Currents Weather Stations Pressure Air Temp Water Temp Dewpoint Dewpoint Depression Visibility Wind Speed Wind Dir Waves Ship Positions

M/V Nikos N

Last reported at 2018-May-14 12:47 UTC. Time now 2018-May-24 06:24 UTC.
Position N 01°24' E 103°11'.
Warning: this ship's position is 9 days out of date.

Length 190 m; draft 13 m.

Type: Cargo ship. MMSI: 538007185.

Date/timePositionNaut miles runAvg speedWind from/ knotsBaromVisibWave heightAir tempDewpointWater temp
2018-May-14 12:47N 01°24' E 103°11'311.6
2018-May-14 12:29N 01°22' E 103°14'712.1
2018-May-14 11:55N 01°18' E 103°20'513.0
2018-May-14 11:30N 01°15' E 103°24'713.0
2018-May-14 11:00N 01°13' E 103°30'713.4
2018-May-14 10:30N 01°11' E 103°37'712.6
2018-May-14 09:59N 01°09' E 103°43'510.8
2018-May-14 09:30N 01°10' E 103°48'611.5
2018-May-14 08:59N 01°13' E 103°53'510.1
2018-May-14 08:30N 01°15' E 103°57'3 5.0
2018-May-14 07:59N 01°17' E 103°59'0 0.2
2018-May-14 07:16N 01°17' E 103°59'0 0.0
2018-May-14 06:38N 01°17' E 103°59'0 0.1
2018-May-14 06:29N 01°17' E 103°59'0 0.0
2018-May-14 05:58N 01°17' E 103°59'0 0.1
2018-May-14 05:26N 01°17' E 103°59'0 0.1
2018-May-14 04:11N 01°17' E 103°59'0 0.0
2018-May-14 03:59N 01°17' E 103°59'0 0.0
2018-May-14 03:23N 01°17' E 103°59'0 0.0
2018-May-14 02:59N 01°17' E 103°59'0 0.0
2018-May-14 02:20N 01°17' E 103°59'0 0.0
2018-May-14 01:47N 01°17' E 103°59'0 0.0
2018-May-14 01:11N 01°17' E 103°59'0 0.1
2018-May-14 00:53N 01°17' E 103°59'0 0.0
2018-May-14 00:29N 01°17' E 103°59'0 0.0
2018-May-13 23:59N 01°17' E 103°59'0 0.1
2018-May-13 23:24N 01°17' E 103°59'1 2.8
2018-May-13 22:59N 01°16' E 103°58'2 3.3
2018-May-13 22:30N 01°16' E 104°00'3 6.4
2018-May-13 21:59N 01°16' E 104°03'4 9.1
2018-May-13 21:30N 01°16' E 104°08'5 9.7
2018-May-13 21:00N 01°17' E 104°13'5 9.3
2018-May-13 20:30N 01°18' E 104°17'5 8.6
2018-May-13 19:57N 01°20' E 104°21'4 9.2
2018-May-13 19:30N 01°23' E 104°24'5 9.0
2018-May-13 18:56N 01°26' E 104°28'  
Track history (hours):
 
Tides and Currents Weather Stations Pressure Air Temp Water Temp Dewpoint Dewpoint Depression Visibility Wind Speed Wind Dir Waves Ship Positions

M/V Nikos N

Last reported at 2018-May-14 12:47 UTC. Time now 2018-May-24 06:24 UTC.
Position N 01°24' E 103°11'.
Warning: this ship's position is 9 days out of date.

Length 190 m; draft 13 m.

Type: Cargo ship. MMSI: 538007185.

Date/timePositionNaut miles runAvg speedWind from/ knotsBaromVisibWave heightAir tempDewpointWater temp
2018-May-14 12:47N 01°24' E 103°11'311.6
2018-May-14 12:29N 01°22' E 103°14'712.1
2018-May-14 11:55N 01°18' E 103°20'513.0
2018-May-14 11:30N 01°15' E 103°24'713.0
2018-May-14 11:00N 01°13' E 103°30'713.4
2018-May-14 10:30N 01°11' E 103°37'712.6
2018-May-14 09:59N 01°09' E 103°43'510.8
2018-May-14 09:30N 01°10' E 103°48'611.5
2018-May-14 08:59N 01°13' E 103°53'510.1
2018-May-14 08:30N 01°15' E 103°57'3 5.0
2018-May-14 07:59N 01°17' E 103°59'0 0.2
2018-May-14 07:16N 01°17' E 103°59'0 0.0
2018-May-14 06:38N 01°17' E 103°59'0 0.1
2018-May-14 06:29N 01°17' E 103°59'0 0.0
2018-May-14 05:58N 01°17' E 103°59'0 0.1
2018-May-14 05:26N 01°17' E 103°59'0 0.1
2018-May-14 04:11N 01°17' E 103°59'0 0.0
2018-May-14 03:59N 01°17' E 103°59'0 0.0
2018-May-14 03:23N 01°17' E 103°59'0 0.0
2018-May-14 02:59N 01°17' E 103°59'0 0.0
2018-May-14 02:20N 01°17' E 103°59'0 0.0
2018-May-14 01:47N 01°17' E 103°59'0 0.0
2018-May-14 01:11N 01°17' E 103°59'0 0.1
2018-May-14 00:53N 01°17' E 103°59'0 0.0
2018-May-14 00:29N 01°17' E 103°59'0 0.0
2018-May-13 23:59N 01°17' E 103°59'0 0.1
2018-May-13 23:24N 01°17' E 103°59'1 2.8
2018-May-13 22:59N 01°16' E 103°58'2 3.3
2018-May-13 22:30N 01°16' E 104°00'3 6.4
2018-May-13 21:59N 01°16' E 104°03'4 9.1
2018-May-13 21:30N 01°16' E 104°08'5 9.7
2018-May-13 21:00N 01°17' E 104°13'5 9.3
2018-May-13 20:30N 01°18' E 104°17'5 8.6
2018-May-13 19:57N 01°20' E 104°21'4 9.2
2018-May-13 19:30N 01°23' E 104°24'5 9.0
2018-May-13 18:56N 01°26' E 104°28'  

Dump ship's entire track history